Terminal Aerodrome Forecast
Issued by NWS Twin Cities, MN

Home | Current Version | Previous Version | Text Only | Print | Product List | Glossary Off
Versions: 1 2 3 4 5 6 7 8 9 10 11 12 13 14 15 16 17 18 19 20 21 22 23 24 25 26

000
FTUS43 KMPX 272300
TAFMSP
TAF
KMSP 272338Z 2800/2906 17009KT P6SM VCSH SCT060 BKN250
     FM280200 16005KT P6SM FEW070 SCT250
     FM281400 18007KT P6SM SCT050 SCT250
     FM282000 21009KT P6SM SCT060 SCT250
     FM290000 19004KT P6SM SCT200=

USA.gov is the U.S. government's official web portal to all federal, state and local government web resources and services.